sensor_id;sensor_type;location;lat;lon;timestamp;P1;durP1;ratioP1;P2;durP2;ratioP2
5493;SDS011;2769;49.864;8.656;2023-07-20T00:02:17;4.37;;;2.40;;
5493;SDS011;2769;49.864;8.656;2023-07-20T00:04:45;4.43;;;2.50;;
5493;SDS011;2769;49.864;8.656;2023-07-20T00:07:14;4.77;;;2.63;;
5493;SDS011;2769;49.864;8.656;2023-07-20T00:09:42;2.50;;;2.00;;
5493;SDS011;2769;49.864;8.656;2023-07-20T00:12:10;3.07;;;2.10;;
5493;SDS011;2769;49.864;8.656;2023-07-20T00:14:38;4.40;;;2.23;;
5493;SDS011;2769;49.864;8.656;2023-07-20T00:17:06;5.30;;;2.20;;
5493;SDS011;2769;49.864;8.656;2023-07-20T00:19:34;5.73;;;2.40;;
5493;SDS011;2769;49.864;8.656;2023-07-20T00:22:02;2.10;;;1.97;;
5493;SDS011;2769;49.864;8.656;2023-07-20T00:24:32;4.57;;;2.37;;
5493;SDS011;2769;49.864;8.656;2023-07-20T00:27:00;3.73;;;2.40;;
5493;SDS011;2769;49.864;8.656;2023-07-20T00:29:29;5.27;;;2.70;;
5493;SDS011;2769;49.864;8.656;2023-07-20T00:31:58;4.97;;;2.43;;
5493;SDS011;2769;49.864;8.656;2023-07-20T00:34:26;6.47;;;2.27;;
5493;SDS011;2769;49.864;8.656;2023-07-20T00:36:54;2.83;;;2.50;;
5493;SDS011;2769;49.864;8.656;2023-07-20T00:39:22;5.10;;;2.50;;
5493;SDS011;2769;49.864;8.656;2023-07-20T00:41:52;2.80;;;2.60;;
5493;SDS011;2769;49.864;8.656;2023-07-20T00:44:20;6.93;;;2.50;;
5493;SDS011;2769;49.864;8.656;2023-07-20T00:46:48;4.83;;;2.53;;
5493;SDS011;2769;49.864;8.656;2023-07-20T00:49:17;7.87;;;2.53;;
5493;SDS011;2769;49.864;8.656;2023-07-20T00:51:47;4.00;;;2.37;;
5493;SDS011;2769;49.864;8.656;2023-07-20T00:54:16;4.43;;;2.77;;
5493;SDS011;2769;49.864;8.656;2023-07-20T00:56:47;2.10;;;2.00;;
5493;SDS011;2769;49.864;8.656;2023-07-20T00:59:16;3.07;;;2.10;;
5493;SDS011;2769;49.864;8.656;2023-07-20T01:01:44;3.60;;;2.73;;
5493;SDS011;2769;49.864;8.656;2023-07-20T01:04:15;4.27;;;2.23;;
5493;SDS011;2769;49.864;8.656;2023-07-20T01:06:45;2.77;;;2.33;;
5493;SDS011;2769;49.864;8.656;2023-07-20T01:09:17;2.57;;;2.37;;
5493;SDS011;2769;49.864;8.656;2023-07-20T01:11:49;2.77;;;2.57;;
5493;SDS011;2769;49.864;8.656;2023-07-20T01:14:23;4.93;;;2.50;;
5493;SDS011;2769;49.864;8.656;2023-07-20T01:16:51;3.60;;;2.47;;
5493;SDS011;2769;49.864;8.656;2023-07-20T01:19:20;4.93;;;2.87;;
5493;SDS011;2769;49.864;8.656;2023-07-20T01:21:50;3.13;;;2.60;;
5493;SDS011;2769;49.864;8.656;2023-07-20T01:24:27;2.90;;;2.67;;
5493;SDS011;2769;49.864;8.656;2023-07-20T01:30:11;6.20;;;3.70;;
5493;SDS011;2769;49.864;8.656;2023-07-20T01:32:45;7.07;;;2.60;;
5493;SDS011;2769;49.864;8.656;2023-07-20T01:35:14;3.40;;;2.63;;
5493;SDS011;2769;49.864;8.656;2023-07-20T01:37:44;3.07;;;2.77;;
5493;SDS011;2769;49.864;8.656;2023-07-20T01:40:14;6.30;;;2.60;;
5493;SDS011;2769;49.864;8.656;2023-07-20T01:42:45;4.90;;;2.63;;
5493;SDS011;2769;49.864;8.656;2023-07-20T01:45:14;5.40;;;3.10;;
5493;SDS011;2769;49.864;8.656;2023-07-20T01:47:42;2.47;;;2.33;;
5493;SDS011;2769;49.864;8.656;2023-07-20T01:50:12;3.20;;;2.90;;
5493;SDS011;2769;49.864;8.656;2023-07-20T01:52:40;3.80;;;3.40;;
5493;SDS011;2769;49.864;8.656;2023-07-20T01:55:08;4.43;;;2.70;;
5493;SDS011;2769;49.864;8.656;2023-07-20T01:57:36;5.30;;;2.30;;
5493;SDS011;2769;49.864;8.656;2023-07-20T02:00:04;3.27;;;2.73;;
5493;SDS011;2769;49.864;8.656;2023-07-20T02:02:39;3.00;;;2.47;;
5493;SDS011;2769;49.864;8.656;2023-07-20T02:05:09;5.17;;;2.80;;
5493;SDS011;2769;49.864;8.656;2023-07-20T02:07:39;5.13;;;2.87;;
5493;SDS011;2769;49.864;8.656;2023-07-20T02:10:07;5.40;;;2.33;;
5493;SDS011;2769;49.864;8.656;2023-07-20T02:12:35;6.40;;;2.53;;
5493;SDS011;2769;49.864;8.656;2023-07-20T02:15:04;4.37;;;3.00;;
5493;SDS011;2769;49.864;8.656;2023-07-20T02:17:35;11.70;;;3.23;;
5493;SDS011;2769;49.864;8.656;2023-07-20T02:20:04;4.00;;;2.30;;
5493;SDS011;2769;49.864;8.656;2023-07-20T02:22:35;5.00;;;2.60;;
5493;SDS011;2769;49.864;8.656;2023-07-20T02:25:05;4.23;;;2.90;;
5493;SDS011;2769;49.864;8.656;2023-07-20T02:27:34;3.30;;;2.90;;
5493;SDS011;2769;49.864;8.656;2023-07-20T02:30:03;8.30;;;2.83;;
5493;SDS011;2769;49.864;8.656;2023-07-20T02:32:31;4.90;;;2.70;;
5493;SDS011;2769;49.864;8.656;2023-07-20T02:34:59;4.20;;;2.80;;
5493;SDS011;2769;49.864;8.656;2023-07-20T02:37:28;3.77;;;2.60;;
5493;SDS011;2769;49.864;8.656;2023-07-20T02:39:56;5.10;;;2.67;;
5493;SDS011;2769;49.864;8.656;2023-07-20T02:42:25;3.83;;;2.60;;
5493;SDS011;2769;49.864;8.656;2023-07-20T02:44:54;3.40;;;2.97;;
5493;SDS011;2769;49.864;8.656;2023-07-20T02:47:22;3.10;;;2.80;;
5493;SDS011;2769;49.864;8.656;2023-07-20T02:49:50;3.10;;;2.57;;
5493;SDS011;2769;49.864;8.656;2023-07-20T02:52:18;2.47;;;2.20;;
5493;SDS011;2769;49.864;8.656;2023-07-20T02:54:48;6.43;;;2.70;;
5493;SDS011;2769;49.864;8.656;2023-07-20T02:57:16;5.80;;;2.50;;
5493;SDS011;2769;49.864;8.656;2023-07-20T02:59:45;3.23;;;2.70;;
5493;SDS011;2769;49.864;8.656;2023-07-20T03:02:13;6.37;;;3.17;;
5493;SDS011;2769;49.864;8.656;2023-07-20T03:04:41;5.20;;;2.53;;
5493;SDS011;2769;49.864;8.656;2023-07-20T03:07:09;11.33;;;2.53;;
5493;SDS011;2769;49.864;8.656;2023-07-20T03:09:37;2.60;;;2.40;;
5493;SDS011;2769;49.864;8.656;2023-07-20T03:12:06;3.17;;;2.87;;
5493;SDS011;2769;49.864;8.656;2023-07-20T03:14:36;3.10;;;2.83;;
5493;SDS011;2769;49.864;8.656;2023-07-20T03:17:06;3.43;;;2.43;;
5493;SDS011;2769;49.864;8.656;2023-07-20T03:19:35;5.03;;;2.80;;
5493;SDS011;2769;49.864;8.656;2023-07-20T03:22:03;6.30;;;2.90;;
5493;SDS011;2769;49.864;8.656;2023-07-20T03:24:32;3.13;;;2.60;;
5493;SDS011;2769;49.864;8.656;2023-07-20T03:27:00;5.07;;;2.50;;
5493;SDS011;2769;49.864;8.656;2023-07-20T03:29:28;3.80;;;2.77;;
5493;SDS011;2769;49.864;8.656;2023-07-20T03:31:55;3.00;;;2.80;;
5493;SDS011;2769;49.864;8.656;2023-07-20T03:34:26;5.20;;;2.90;;
5493;SDS011;2769;49.864;8.656;2023-07-20T03:36:54;3.00;;;2.43;;
5493;SDS011;2769;49.864;8.656;2023-07-20T03:39:22;5.77;;;3.40;;
5493;SDS011;2769;49.864;8.656;2023-07-20T03:41:50;4.80;;;2.87;;
5493;SDS011;2769;49.864;8.656;2023-07-20T03:44:19;5.20;;;2.73;;
5493;SDS011;2769;49.864;8.656;2023-07-20T03:46:47;7.03;;;3.50;;
5493;SDS011;2769;49.864;8.656;2023-07-20T03:49:15;3.57;;;2.40;;
5493;SDS011;2769;49.864;8.656;2023-07-20T03:51:45;3.13;;;2.70;;
5493;SDS011;2769;49.864;8.656;2023-07-20T03:54:13;6.13;;;2.83;;
5493;SDS011;2769;49.864;8.656;2023-07-20T03:56:41;9.73;;;2.93;;
5493;SDS011;2769;49.864;8.656;2023-07-20T03:59:09;3.63;;;2.60;;
5493;SDS011;2769;49.864;8.656;2023-07-20T04:01:37;3.03;;;2.77;;
5493;SDS011;2769;49.864;8.656;2023-07-20T04:04:07;4.70;;;2.73;;
5493;SDS011;2769;49.864;8.656;2023-07-20T04:06:35;4.60;;;2.93;;
5493;SDS011;2769;49.864;8.656;2023-07-20T04:09:04;4.27;;;3.07;;
5493;SDS011;2769;49.864;8.656;2023-07-20T04:11:32;8.70;;;3.13;;
5493;SDS011;2769;49.864;8.656;2023-07-20T04:14:01;4.93;;;2.63;;
5493;SDS011;2769;49.864;8.656;2023-07-20T04:16:29;4.67;;;2.70;;
5493;SDS011;2769;49.864;8.656;2023-07-20T04:18:57;2.90;;;2.70;;
5493;SDS011;2769;49.864;8.656;2023-07-20T04:21:25;5.90;;;2.50;;
5493;SDS011;2769;49.864;8.656;2023-07-20T04:23:55;7.40;;;3.20;;
5493;SDS011;2769;49.864;8.656;2023-07-20T04:26:25;2.83;;;2.37;;
5493;SDS011;2769;49.864;8.656;2023-07-20T04:28:53;3.53;;;2.73;;
5493;SDS011;2769;49.864;8.656;2023-07-20T04:31:32;7.13;;;2.70;;
5493;SDS011;2769;49.864;8.656;2023-07-20T04:34:02;4.83;;;2.77;;
5493;SDS011;2769;49.864;8.656;2023-07-20T04:36:32;3.83;;;2.57;;
5493;SDS011;2769;49.864;8.656;2023-07-20T04:39:00;4.10;;;2.77;;
5493;SDS011;2769;49.864;8.656;2023-07-20T04:41:35;3.47;;;2.57;;
5493;SDS011;2769;49.864;8.656;2023-07-20T04:44:03;4.40;;;2.73;;
5493;SDS011;2769;49.864;8.656;2023-07-20T04:46:31;6.53;;;3.60;;
5493;SDS011;2769;49.864;8.656;2023-07-20T04:49:02;4.17;;;2.87;;
5493;SDS011;2769;49.864;8.656;2023-07-20T04:51:34;3.70;;;2.50;;
5493;SDS011;2769;49.864;8.656;2023-07-20T04:54:02;3.40;;;2.40;;
5493;SDS011;2769;49.864;8.656;2023-07-20T04:56:36;3.03;;;2.40;;
5493;SDS011;2769;49.864;8.656;2023-07-20T04:59:07;5.60;;;2.80;;
5493;SDS011;2769;49.864;8.656;2023-07-20T05:01:35;5.97;;;2.50;;
5493;SDS011;2769;49.864;8.656;2023-07-20T05:04:03;4.57;;;2.80;;
5493;SDS011;2769;49.864;8.656;2023-07-20T05:06:34;5.80;;;3.03;;
5493;SDS011;2769;49.864;8.656;2023-07-20T05:09:03;5.50;;;2.93;;
5493;SDS011;2769;49.864;8.656;2023-07-20T05:11:32;2.13;;;1.93;;
5493;SDS011;2769;49.864;8.656;2023-07-20T05:14:01;3.23;;;2.80;;
5493;SDS011;2769;49.864;8.656;2023-07-20T05:16:29;3.47;;;2.47;;
5493;SDS011;2769;49.864;8.656;2023-07-20T05:19:01;7.13;;;2.80;;
5493;SDS011;2769;49.864;8.656;2023-07-20T05:21:30;6.60;;;2.67;;
5493;SDS011;2769;49.864;8.656;2023-07-20T05:23:58;8.70;;;2.87;;
5493;SDS011;2769;49.864;8.656;2023-07-20T05:26:27;3.83;;;2.70;;
5493;SDS011;2769;49.864;8.656;2023-07-20T05:28:55;2.97;;;2.63;;
5493;SDS011;2769;49.864;8.656;2023-07-20T05:31:24;4.17;;;2.63;;
5493;SDS011;2769;49.864;8.656;2023-07-20T05:33:52;6.33;;;2.63;;
5493;SDS011;2769;49.864;8.656;2023-07-20T05:36:20;3.67;;;2.67;;
5493;SDS011;2769;49.864;8.656;2023-07-20T05:38:49;7.33;;;2.37;;
5493;SDS011;2769;49.864;8.656;2023-07-20T05:41:17;5.00;;;2.67;;
5493;SDS011;2769;49.864;8.656;2023-07-20T05:43:45;9.57;;;2.70;;
5493;SDS011;2769;49.864;8.656;2023-07-20T05:46:13;9.07;;;3.13;;
5493;SDS011;2769;49.864;8.656;2023-07-20T05:48:42;3.00;;;2.40;;
5493;SDS011;2769;49.864;8.656;2023-07-20T05:51:10;4.67;;;2.50;;
5493;SDS011;2769;49.864;8.656;2023-07-20T05:53:38;3.50;;;2.50;;
5493;SDS011;2769;49.864;8.656;2023-07-20T05:56:06;3.00;;;2.63;;
5493;SDS011;2769;49.864;8.656;2023-07-20T05:58:36;4.90;;;2.50;;
5493;SDS011;2769;49.864;8.656;2023-07-20T06:01:04;4.40;;;2.80;;
5493;SDS011;2769;49.864;8.656;2023-07-20T06:03:33;4.20;;;2.30;;
5493;SDS011;2769;49.864;8.656;2023-07-20T06:06:03;4.70;;;2.90;;
5493;SDS011;2769;49.864;8.656;2023-07-20T06:08:32;5.07;;;2.20;;
5493;SDS011;2769;49.864;8.656;2023-07-20T06:11:00;7.93;;;2.70;;
5493;SDS011;2769;49.864;8.656;2023-07-20T06:13:28;8.80;;;2.90;;
5493;SDS011;2769;49.864;8.656;2023-07-20T06:15:59;5.23;;;2.43;;
5493;SDS011;2769;49.864;8.656;2023-07-20T06:18:27;3.13;;;2.80;;
5493;SDS011;2769;49.864;8.656;2023-07-20T06:20:55;4.20;;;2.40;;
5493;SDS011;2769;49.864;8.656;2023-07-20T06:23:24;5.77;;;2.57;;
5493;SDS011;2769;49.864;8.656;2023-07-20T06:25:52;5.17;;;2.40;;
5493;SDS011;2769;49.864;8.656;2023-07-20T06:28:20;3.90;;;2.90;;
5493;SDS011;2769;49.864;8.656;2023-07-20T06:30:48;5.37;;;2.93;;
5493;SDS011;2769;49.864;8.656;2023-07-20T06:33:17;4.00;;;2.90;;
5493;SDS011;2769;49.864;8.656;2023-07-20T06:35:45;9.03;;;2.90;;
5493;SDS011;2769;49.864;8.656;2023-07-20T06:38:13;5.80;;;2.23;;
5493;SDS011;2769;49.864;8.656;2023-07-20T06:40:46;3.70;;;2.70;;
5493;SDS011;2769;49.864;8.656;2023-07-20T06:43:14;4.70;;;2.23;;
5493;SDS011;2769;49.864;8.656;2023-07-20T06:45:50;6.70;;;2.63;;
5493;SDS011;2769;49.864;8.656;2023-07-20T06:48:19;3.17;;;2.77;;
5493;SDS011;2769;49.864;8.656;2023-07-20T06:50:47;7.43;;;2.73;;
5493;SDS011;2769;49.864;8.656;2023-07-20T06:53:15;8.53;;;2.93;;
5493;SDS011;2769;49.864;8.656;2023-07-20T06:55:44;3.87;;;2.43;;
5493;SDS011;2769;49.864;8.656;2023-07-20T06:58:14;3.13;;;2.33;;
5493;SDS011;2769;49.864;8.656;2023-07-20T07:00:42;5.77;;;3.03;;
5493;SDS011;2769;49.864;8.656;2023-07-20T07:03:11;6.47;;;2.50;;
5493;SDS011;2769;49.864;8.656;2023-07-20T07:05:39;2.97;;;2.27;;
5493;SDS011;2769;49.864;8.656;2023-07-20T07:08:07;3.63;;;2.40;;
5493;SDS011;2769;49.864;8.656;2023-07-20T07:10:36;3.07;;;2.63;;
5493;SDS011;2769;49.864;8.656;2023-07-20T07:13:04;3.73;;;2.80;;
5493;SDS011;2769;49.864;8.656;2023-07-20T07:15:34;6.77;;;2.40;;
5493;SDS011;2769;49.864;8.656;2023-07-20T07:18:04;3.27;;;2.50;;
5493;SDS011;2769;49.864;8.656;2023-07-20T07:20:32;4.43;;;2.47;;
5493;SDS011;2769;49.864;8.656;2023-07-20T07:23:00;3.53;;;2.60;;
5493;SDS011;2769;49.864;8.656;2023-07-20T07:25:28;5.10;;;2.40;;
5493;SDS011;2769;49.864;8.656;2023-07-20T07:27:57;3.23;;;2.50;;
5493;SDS011;2769;49.864;8.656;2023-07-20T07:30:25;4.30;;;2.70;;
5493;SDS011;2769;49.864;8.656;2023-07-20T07:32:55;3.70;;;2.80;;
5493;SDS011;2769;49.864;8.656;2023-07-20T07:35:23;5.07;;;2.90;;
5493;SDS011;2769;49.864;8.656;2023-07-20T07:37:51;3.20;;;2.73;;
5493;SDS011;2769;49.864;8.656;2023-07-20T07:40:39;3.23;;;2.27;;
5493;SDS011;2769;49.864;8.656;2023-07-20T07:43:08;2.63;;;2.40;;
5493;SDS011;2769;49.864;8.656;2023-07-20T07:45:36;4.13;;;2.57;;
5493;SDS011;2769;49.864;8.656;2023-07-20T07:48:06;9.03;;;2.27;;
5493;SDS011;2769;49.864;8.656;2023-07-20T07:50:34;3.70;;;2.40;;
5493;SDS011;2769;49.864;8.656;2023-07-20T07:53:02;3.00;;;2.50;;
5493;SDS011;2769;49.864;8.656;2023-07-20T07:55:34;4.27;;;2.93;;
5493;SDS011;2769;49.864;8.656;2023-07-20T07:58:02;2.60;;;2.33;;
5493;SDS011;2769;49.864;8.656;2023-07-20T08:00:30;4.80;;;2.40;;
5493;SDS011;2769;49.864;8.656;2023-07-20T08:02:58;2.53;;;2.33;;
5493;SDS011;2769;49.864;8.656;2023-07-20T08:05:28;3.30;;;2.60;;
5493;SDS011;2769;49.864;8.656;2023-07-20T08:07:56;4.57;;;2.13;;
5493;SDS011;2769;49.864;8.656;2023-07-20T08:10:24;4.50;;;2.40;;
5493;SDS011;2769;49.864;8.656;2023-07-20T08:12:52;4.03;;;2.30;;
5493;SDS011;2769;49.864;8.656;2023-07-20T08:15:20;3.27;;;2.20;;
5493;SDS011;2769;49.864;8.656;2023-07-20T08:17:49;2.20;;;2.00;;
5493;SDS011;2769;49.864;8.656;2023-07-20T08:20:18;3.00;;;2.30;;
5493;SDS011;2769;49.864;8.656;2023-07-20T08:22:51;2.23;;;2.10;;
5493;SDS011;2769;49.864;8.656;2023-07-20T08:25:19;2.30;;;2.20;;
5493;SDS011;2769;49.864;8.656;2023-07-20T08:27:47;1.83;;;1.73;;
5493;SDS011;2769;49.864;8.656;2023-07-20T08:30:15;4.40;;;1.70;;
5493;SDS011;2769;49.864;8.656;2023-07-20T08:32:44;2.07;;;1.87;;
5493;SDS011;2769;49.864;8.656;2023-07-20T08:35:12;2.30;;;2.10;;
5493;SDS011;2769;49.864;8.656;2023-07-20T08:37:41;1.87;;;1.77;;
5493;SDS011;2769;49.864;8.656;2023-07-20T08:40:11;7.70;;;2.03;;
5493;SDS011;2769;49.864;8.656;2023-07-20T08:42:44;3.70;;;2.33;;
5493;SDS011;2769;49.864;8.656;2023-07-20T08:45:21;3.73;;;1.83;;
5493;SDS011;2769;49.864;8.656;2023-07-20T08:47:50;2.30;;;1.90;;
5493;SDS011;2769;49.864;8.656;2023-07-20T08:50:22;3.57;;;1.60;;
5493;SDS011;2769;49.864;8.656;2023-07-20T08:52:54;2.60;;;1.87;;
5493;SDS011;2769;49.864;8.656;2023-07-20T08:55:26;2.70;;;2.10;;
5493;SDS011;2769;49.864;8.656;2023-07-20T08:57:54;1.87;;;1.70;;
5493;SDS011;2769;49.864;8.656;2023-07-20T09:00:25;2.13;;;1.80;;
5493;SDS011;2769;49.864;8.656;2023-07-20T09:02:54;3.80;;;2.30;;
5493;SDS011;2769;49.864;8.656;2023-07-20T09:05:23;3.87;;;2.50;;
5493;SDS011;2769;49.864;8.656;2023-07-20T09:07:53;3.03;;;1.93;;
5493;SDS011;2769;49.864;8.656;2023-07-20T09:10:21;3.80;;;1.90;;
5493;SDS011;2769;49.864;8.656;2023-07-20T09:12:52;1.97;;;1.80;;
5493;SDS011;2769;49.864;8.656;2023-07-20T09:15:22;3.67;;;2.20;;
5493;SDS011;2769;49.864;8.656;2023-07-20T09:17:50;1.93;;;1.83;;
5493;SDS011;2769;49.864;8.656;2023-07-20T09:20:20;4.00;;;2.00;;
5493;SDS011;2769;49.864;8.656;2023-07-20T09:22:52;2.30;;;1.90;;
5493;SDS011;2769;49.864;8.656;2023-07-20T09:25:20;2.00;;;1.90;;
5493;SDS011;2769;49.864;8.656;2023-07-20T09:27:54;2.53;;;1.60;;
5493;SDS011;2769;49.864;8.656;2023-07-20T09:30:25;3.03;;;1.70;;
5493;SDS011;2769;49.864;8.656;2023-07-20T09:32:56;1.83;;;1.50;;
5493;SDS011;2769;49.864;8.656;2023-07-20T09:35:28;2.83;;;1.80;;
5493;SDS011;2769;49.864;8.656;2023-07-20T09:38:07;2.40;;;1.50;;
5493;SDS011;2769;49.864;8.656;2023-07-20T09:40:38;2.23;;;1.70;;
5493;SDS011;2769;49.864;8.656;2023-07-20T09:43:11;1.80;;;1.70;;
5493;SDS011;2769;49.864;8.656;2023-07-20T09:45:42;4.37;;;1.80;;
5493;SDS011;2769;49.864;8.656;2023-07-20T09:48:13;2.10;;;1.87;;
5493;SDS011;2769;49.864;8.656;2023-07-20T09:50:48;2.03;;;1.83;;
5493;SDS011;2769;49.864;8.656;2023-07-20T09:53:17;1.90;;;1.80;;
5493;SDS011;2769;49.864;8.656;2023-07-20T09:55:46;2.00;;;1.73;;
5493;SDS011;2769;49.864;8.656;2023-07-20T09:58:16;2.23;;;1.80;;
5493;SDS011;2769;49.864;8.656;2023-07-20T10:00:45;2.20;;;1.40;;
5493;SDS011;2769;49.864;8.656;2023-07-20T10:03:19;2.33;;;2.10;;
5493;SDS011;2769;49.864;8.656;2023-07-20T10:05:51;1.70;;;1.60;;
5493;SDS011;2769;49.864;8.656;2023-07-20T10:08:20;2.70;;;1.67;;
5493;SDS011;2769;49.864;8.656;2023-07-20T10:10:54;2.00;;;1.80;;
5493;SDS011;2769;49.864;8.656;2023-07-20T10:13:25;6.00;;;5.60;;
5493;SDS011;2769;49.864;8.656;2023-07-20T10:15:54;1.73;;;1.63;;
5493;SDS011;2769;49.864;8.656;2023-07-20T10:18:24;3.50;;;2.10;;
5493;SDS011;2769;49.864;8.656;2023-07-20T10:20:55;2.57;;;2.17;;
5493;SDS011;2769;49.864;8.656;2023-07-20T10:23:28;4.93;;;1.70;;
5493;SDS011;2769;49.864;8.656;2023-07-20T10:25:57;2.00;;;1.80;;
5493;SDS011;2769;49.864;8.656;2023-07-20T10:28:27;2.80;;;1.77;;
5493;SDS011;2769;49.864;8.656;2023-07-20T10:30:55;1.90;;;1.70;;
5493;SDS011;2769;49.864;8.656;2023-07-20T10:33:24;1.80;;;1.50;;
5493;SDS011;2769;49.864;8.656;2023-07-20T10:35:52;2.70;;;1.70;;
5493;SDS011;2769;49.864;8.656;2023-07-20T10:41:17;1.80;;;1.70;;
5493;SDS011;2769;49.864;8.656;2023-07-20T10:43:47;4.23;;;1.63;;
5493;SDS011;2769;49.864;8.656;2023-07-20T10:49:10;1.60;;;1.50;;
5493;SDS011;2769;49.864;8.656;2023-07-20T10:51:39;1.77;;;1.67;;
5493;SDS011;2769;49.864;8.656;2023-07-20T10:54:09;2.90;;;1.80;;
5493;SDS011;2769;49.864;8.656;2023-07-20T10:56:39;2.50;;;1.80;;
5493;SDS011;2769;49.864;8.656;2023-07-20T10:59:18;2.20;;;1.43;;
5493;SDS011;2769;49.864;8.656;2023-07-20T11:01:47;2.07;;;1.40;;
5493;SDS011;2769;49.864;8.656;2023-07-20T11:04:16;1.63;;;1.53;;
5493;SDS011;2769;49.864;8.656;2023-07-20T11:06:45;2.10;;;1.40;;
5493;SDS011;2769;49.864;8.656;2023-07-20T11:09:14;1.53;;;1.43;;
5493;SDS011;2769;49.864;8.656;2023-07-20T11:11:42;1.97;;;1.80;;
5493;SDS011;2769;49.864;8.656;2023-07-20T11:14:21;4.20;;;1.80;;
5493;SDS011;2769;49.864;8.656;2023-07-20T11:16:50;4.73;;;1.70;;
5493;SDS011;2769;49.864;8.656;2023-07-20T11:19:20;1.30;;;1.30;;
5493;SDS011;2769;49.864;8.656;2023-07-20T11:21:53;2.17;;;1.60;;
5493;SDS011;2769;49.864;8.656;2023-07-20T11:24:30;2.73;;;1.50;;
5493;SDS011;2769;49.864;8.656;2023-07-20T11:26:58;3.53;;;1.90;;
5493;SDS011;2769;49.864;8.656;2023-07-20T11:29:29;2.50;;;1.70;;
5493;SDS011;2769;49.864;8.656;2023-07-20T11:32:00;1.40;;;1.30;;
5493;SDS011;2769;49.864;8.656;2023-07-20T11:34:31;2.10;;;1.97;;
5493;SDS011;2769;49.864;8.656;2023-07-20T11:36:59;2.07;;;1.40;;
5493;SDS011;2769;49.864;8.656;2023-07-20T11:39:31;1.63;;;1.40;;
5493;SDS011;2769;49.864;8.656;2023-07-20T11:41:59;1.60;;;1.17;;
5493;SDS011;2769;49.864;8.656;2023-07-20T11:44:29;2.57;;;1.83;;
5493;SDS011;2769;49.864;8.656;2023-07-20T11:47:00;1.60;;;1.33;;
5493;SDS011;2769;49.864;8.656;2023-07-20T11:49:30;1.70;;;1.60;;
5493;SDS011;2769;49.864;8.656;2023-07-20T11:52:01;1.53;;;1.43;;
5493;SDS011;2769;49.864;8.656;2023-07-20T11:54:29;2.13;;;1.30;;
5493;SDS011;2769;49.864;8.656;2023-07-20T11:57:00;1.77;;;1.50;;
5493;SDS011;2769;49.864;8.656;2023-07-20T11:59:30;3.63;;;1.77;;
5493;SDS011;2769;49.864;8.656;2023-07-20T12:01:58;1.70;;;1.60;;
5493;SDS011;2769;49.864;8.656;2023-07-20T12:04:28;1.67;;;1.57;;
5493;SDS011;2769;49.864;8.656;2023-07-20T12:06:55;1.73;;;1.43;;
5493;SDS011;2769;49.864;8.656;2023-07-20T12:09:23;1.50;;;1.40;;
5493;SDS011;2769;49.864;8.656;2023-07-20T12:12:09;1.80;;;1.53;;
5493;SDS011;2769;49.864;8.656;2023-07-20T12:14:39;1.57;;;1.47;;
5493;SDS011;2769;49.864;8.656;2023-07-20T12:17:07;13.73;;;1.87;;
5493;SDS011;2769;49.864;8.656;2023-07-20T12:19:37;3.10;;;1.53;;
5493;SDS011;2769;49.864;8.656;2023-07-20T12:22:06;1.97;;;1.80;;
5493;SDS011;2769;49.864;8.656;2023-07-20T12:24:34;2.80;;;1.37;;
5493;SDS011;2769;49.864;8.656;2023-07-20T12:27:02;2.33;;;1.43;;
5493;SDS011;2769;49.864;8.656;2023-07-20T12:29:31;1.50;;;1.40;;
5493;SDS011;2769;49.864;8.656;2023-07-20T12:32:04;1.93;;;1.70;;
5493;SDS011;2769;49.864;8.656;2023-07-20T12:34:33;1.30;;;1.30;;
5493;SDS011;2769;49.864;8.656;2023-07-20T12:37:02;1.73;;;1.63;;
5493;SDS011;2769;49.864;8.656;2023-07-20T12:39:31;1.53;;;1.43;;
5493;SDS011;2769;49.864;8.656;2023-07-20T12:41:59;2.80;;;1.90;;
5493;SDS011;2769;49.864;8.656;2023-07-20T12:44:27;2.77;;;1.50;;
5493;SDS011;2769;49.864;8.656;2023-07-20T12:46:55;2.93;;;1.80;;
5493;SDS011;2769;49.864;8.656;2023-07-20T12:49:25;1.60;;;1.50;;
5493;SDS011;2769;49.864;8.656;2023-07-20T12:51:53;1.40;;;1.30;;
5493;SDS011;2769;49.864;8.656;2023-07-20T12:54:21;3.17;;;1.53;;
5493;SDS011;2769;49.864;8.656;2023-07-20T12:56:49;4.00;;;1.43;;
5493;SDS011;2769;49.864;8.656;2023-07-20T12:59:20;1.80;;;1.70;;
5493;SDS011;2769;49.864;8.656;2023-07-20T13:01:48;1.40;;;1.30;;
5493;SDS011;2769;49.864;8.656;2023-07-20T13:04:16;1.20;;;1.20;;
5493;SDS011;2769;49.864;8.656;2023-07-20T13:06:45;3.23;;;1.20;;
5493;SDS011;2769;49.864;8.656;2023-07-20T13:09:13;1.30;;;1.20;;
5493;SDS011;2769;49.864;8.656;2023-07-20T13:11:41;6.00;;;1.90;;
5493;SDS011;2769;49.864;8.656;2023-07-20T13:14:09;1.60;;;1.50;;
5493;SDS011;2769;49.864;8.656;2023-07-20T13:16:38;1.50;;;1.40;;
5493;SDS011;2769;49.864;8.656;2023-07-20T13:19:06;2.43;;;1.47;;
5493;SDS011;2769;49.864;8.656;2023-07-20T13:21:34;1.67;;;1.57;;
5493;SDS011;2769;49.864;8.656;2023-07-20T13:24:05;2.67;;;1.50;;
5493;SDS011;2769;49.864;8.656;2023-07-20T13:26:33;5.53;;;2.30;;
5493;SDS011;2769;49.864;8.656;2023-07-20T13:29:02;1.77;;;1.67;;
5493;SDS011;2769;49.864;8.656;2023-07-20T13:31:30;3.53;;;1.53;;
5493;SDS011;2769;49.864;8.656;2023-07-20T13:34:00;1.60;;;1.50;;
5493;SDS011;2769;49.864;8.656;2023-07-20T13:36:29;1.70;;;1.60;;
5493;SDS011;2769;49.864;8.656;2023-07-20T13:38:57;1.77;;;1.70;;
5493;SDS011;2769;49.864;8.656;2023-07-20T13:41:27;2.20;;;1.80;;
5493;SDS011;2769;49.864;8.656;2023-07-20T13:43:56;1.60;;;1.50;;
5493;SDS011;2769;49.864;8.656;2023-07-20T13:46:24;2.03;;;1.83;;
5493;SDS011;2769;49.864;8.656;2023-07-20T13:48:55;1.67;;;1.50;;
5493;SDS011;2769;49.864;8.656;2023-07-20T13:51:24;1.97;;;1.80;;
5493;SDS011;2769;49.864;8.656;2023-07-20T13:53:53;3.60;;;1.73;;
5493;SDS011;2769;49.864;8.656;2023-07-20T13:56:21;2.13;;;1.87;;
5493;SDS011;2769;49.864;8.656;2023-07-20T13:58:51;2.60;;;1.90;;
5493;SDS011;2769;49.864;8.656;2023-07-20T14:01:19;2.07;;;1.60;;
5493;SDS011;2769;49.864;8.656;2023-07-20T14:03:52;1.97;;;1.60;;
5493;SDS011;2769;49.864;8.656;2023-07-20T14:06:20;3.90;;;1.80;;
5493;SDS011;2769;49.864;8.656;2023-07-20T14:08:51;1.90;;;1.80;;
5493;SDS011;2769;49.864;8.656;2023-07-20T14:11:19;2.67;;;1.57;;
5493;SDS011;2769;49.864;8.656;2023-07-20T14:13:52;2.10;;;1.57;;
5493;SDS011;2769;49.864;8.656;2023-07-20T14:16:20;3.23;;;1.83;;
5493;SDS011;2769;49.864;8.656;2023-07-20T14:18:50;3.33;;;1.57;;
5493;SDS011;2769;49.864;8.656;2023-07-20T14:21:18;2.20;;;1.73;;
5493;SDS011;2769;49.864;8.656;2023-07-20T14:23:48;4.20;;;1.70;;
5493;SDS011;2769;49.864;8.656;2023-07-20T14:26:20;1.83;;;1.73;;
5493;SDS011;2769;49.864;8.656;2023-07-20T14:28:48;1.37;;;1.33;;
5493;SDS011;2769;49.864;8.656;2023-07-20T14:31:18;1.60;;;1.47;;
5493;SDS011;2769;49.864;8.656;2023-07-20T14:33:46;1.50;;;1.40;;
5493;SDS011;2769;49.864;8.656;2023-07-20T14:36:15;2.43;;;1.50;;
5493;SDS011;2769;49.864;8.656;2023-07-20T14:38:44;1.43;;;1.37;;
5493;SDS011;2769;49.864;8.656;2023-07-20T14:41:12;1.60;;;1.50;;
5493;SDS011;2769;49.864;8.656;2023-07-20T14:43:41;2.10;;;1.90;;
5493;SDS011;2769;49.864;8.656;2023-07-20T14:46:09;3.13;;;1.90;;
5493;SDS011;2769;49.864;8.656;2023-07-20T14:48:38;1.50;;;1.40;;
5493;SDS011;2769;49.864;8.656;2023-07-20T14:51:06;2.53;;;1.73;;
5493;SDS011;2769;49.864;8.656;2023-07-20T14:53:35;4.00;;;1.67;;
5493;SDS011;2769;49.864;8.656;2023-07-20T14:56:03;2.50;;;1.70;;
5493;SDS011;2769;49.864;8.656;2023-07-20T14:58:31;2.70;;;1.30;;
5493;SDS011;2769;49.864;8.656;2023-07-20T15:01:01;1.60;;;1.50;;
5493;SDS011;2769;49.864;8.656;2023-07-20T15:03:29;1.70;;;1.50;;
5493;SDS011;2769;49.864;8.656;2023-07-20T15:06:01;2.83;;;1.50;;
5493;SDS011;2769;49.864;8.656;2023-07-20T15:08:30;1.90;;;1.80;;
5493;SDS011;2769;49.864;8.656;2023-07-20T15:10:58;1.70;;;1.60;;
5493;SDS011;2769;49.864;8.656;2023-07-20T15:13:26;1.93;;;1.37;;
5493;SDS011;2769;49.864;8.656;2023-07-20T15:15:54;1.30;;;1.30;;
5493;SDS011;2769;49.864;8.656;2023-07-20T15:18:22;1.50;;;1.40;;
5493;SDS011;2769;49.864;8.656;2023-07-20T15:21:08;4.70;;;2.00;;
5493;SDS011;2769;49.864;8.656;2023-07-20T15:23:36;5.20;;;1.83;;
5493;SDS011;2769;49.864;8.656;2023-07-20T15:26:05;1.50;;;1.40;;
5493;SDS011;2769;49.864;8.656;2023-07-20T15:28:33;7.10;;;1.40;;
5493;SDS011;2769;49.864;8.656;2023-07-20T15:31:01;4.37;;;1.57;;
5493;SDS011;2769;49.864;8.656;2023-07-20T15:33:29;1.60;;;1.50;;
5493;SDS011;2769;49.864;8.656;2023-07-20T15:35:57;2.60;;;1.60;;
5493;SDS011;2769;49.864;8.656;2023-07-20T15:38:27;1.93;;;1.57;;